createdAt,value
2018-01-04T00:01:02.253Z,991.36
2018-01-04T00:02:03.475Z,991.43
2018-01-04T00:03:55.954Z,991.31
2018-01-04T00:04:56.224Z,991.29
2018-01-04T00:06:50.291Z,991.31
2018-01-04T00:07:50.329Z,991.28
2018-01-04T00:09:43.024Z,991.31
2018-01-04T00:10:43.870Z,991.28
2018-01-04T00:12:37.435Z,991.21
2018-01-04T00:13:37.425Z,991.28
2018-01-04T00:15:30.034Z,991.26
2018-01-04T00:16:30.736Z,991.46
2018-01-04T00:18:24.599Z,991.30
2018-01-04T00:20:37.078Z,991.22
2018-01-04T00:21:36.321Z,991.33
2018-01-04T00:23:30.343Z,991.27
2018-01-04T00:24:30.929Z,991.27
2018-01-04T00:26:24.179Z,991.26
2018-01-04T00:27:25.114Z,991.23
2018-01-04T00:29:18.655Z,991.31
2018-01-04T00:30:18.657Z,991.32
2018-01-04T00:32:11.178Z,991.29
2018-01-04T00:33:12.175Z,991.40
2018-01-04T00:35:05.787Z,991.28
2018-01-04T00:36:05.756Z,991.17
2018-01-04T00:37:59.888Z,991.34
2018-01-04T00:38:57.475Z,991.32
2018-01-04T00:40:53.744Z,991.32
2018-01-04T00:41:52.865Z,991.33
2018-01-04T00:43:45.512Z,991.28
2018-01-04T00:44:46.419Z,991.26
2018-01-04T00:46:40.022Z,991.30
2018-01-04T00:47:40.020Z,991.30
2018-01-04T00:49:32.386Z,991.33
2018-01-04T00:50:33.612Z,991.28
2018-01-04T00:52:25.269Z,991.30
2018-01-04T00:53:27.103Z,991.24
2018-01-04T00:55:19.269Z,991.13
2018-01-04T00:56:18.029Z,991.35
2018-01-04T00:58:11.982Z,991.27
2018-01-04T00:59:14.252Z,991.28
2018-01-04T01:01:06.212Z,991.26
2018-01-04T01:02:07.776Z,991.20
2018-01-04T01:04:01.336Z,991.22
2018-01-04T01:04:59.706Z,991.28
2018-01-04T01:06:53.831Z,991.36
2018-01-04T01:07:54.877Z,991.33
2018-01-04T01:09:48.452Z,991.36
2018-01-04T01:10:48.445Z,991.26
2018-01-04T01:12:41.208Z,991.33
2018-01-04T01:13:40.009Z,991.38
2018-01-04T01:15:34.776Z,991.38
2018-01-04T01:16:36.505Z,991.45
2018-01-04T01:18:31.273Z,991.45
2018-01-04T01:19:29.123Z,991.42
2018-01-04T01:21:21.538Z,991.45
2018-01-04T01:23:36.093Z,991.28
2018-01-04T01:24:37.036Z,991.43
2018-01-04T01:26:27.250Z,991.48
2018-01-04T01:27:29.668Z,991.41
2018-01-04T01:29:23.369Z,991.43
2018-01-04T01:30:23.293Z,991.47
2018-01-04T01:32:15.128Z,991.49
2018-01-04T01:33:16.813Z,991.46
2018-01-04T01:35:10.319Z,991.54
2018-01-04T01:36:10.357Z,991.56
2018-01-04T01:38:02.961Z,991.56
2018-01-04T01:39:03.879Z,991.48
2018-01-04T01:40:54.552Z,991.32
2018-01-04T01:43:08.018Z,991.39
2018-01-04T01:44:10.844Z,991.50
2018-01-04T01:46:02.033Z,991.48
2018-01-04T01:47:03.822Z,991.52
2018-01-04T01:48:57.119Z,991.64
2018-01-04T01:49:58.016Z,991.58
2018-01-04T01:51:50.679Z,991.62
2018-01-04T01:52:51.516Z,991.64
2018-01-04T01:54:45.175Z,991.54
2018-01-04T01:55:45.074Z,991.42
2018-01-04T01:57:37.839Z,991.50
2018-01-04T01:58:38.647Z,991.43
2018-01-04T02:00:32.298Z,991.46
2018-01-04T02:01:32.194Z,991.65
2018-01-04T02:03:24.858Z,991.55
2018-01-04T02:04:24.990Z,991.58
2018-01-04T02:06:19.729Z,991.72
2018-01-04T02:07:19.324Z,991.62
2018-01-04T02:09:11.902Z,991.74
2018-01-04T02:10:12.898Z,991.73
2018-01-04T02:12:06.532Z,991.82
2018-01-04T02:13:05.936Z,991.79
2018-01-04T02:14:59.889Z,991.78
2018-01-04T02:15:59.977Z,991.86
2018-01-04T02:17:52.498Z,991.83
2018-01-04T02:18:53.556Z,991.75
2018-01-04T02:20:45.044Z,991.75
2018-01-04T02:21:47.130Z,991.73
2018-01-04T02:23:39.795Z,991.78
2018-01-04T02:24:40.591Z,991.73
2018-01-04T02:26:35.106Z,991.84
2018-01-04T02:27:34.294Z,991.83
2018-01-04T02:29:26.905Z,991.93
2018-01-04T02:30:27.854Z,991.96
2018-01-04T02:32:20.426Z,991.86
2018-01-04T02:33:18.818Z,991.80
2018-01-04T02:35:13.987Z,991.80
2018-01-04T02:36:13.953Z,991.71
2018-01-04T02:38:05.546Z,991.80
2018-01-04T02:39:07.589Z,991.80
2018-01-04T02:41:02.641Z,991.67
2018-01-04T02:42:02.044Z,991.73
2018-01-04T02:43:55.442Z,991.71
2018-01-04T02:44:55.551Z,991.68
2018-01-04T02:46:48.263Z,991.71
2018-01-04T02:47:49.124Z,991.76
2018-01-04T02:49:42.691Z,991.77
2018-01-04T02:50:42.580Z,991.78
2018-01-04T02:52:35.382Z,991.69
2018-01-04T02:53:36.259Z,991.74
2018-01-04T02:55:29.651Z,991.77
2018-01-04T02:56:29.821Z,991.78
2018-01-04T02:58:22.503Z,991.77
2018-01-04T02:59:23.342Z,991.76
2018-01-04T03:01:16.917Z,991.73
2018-01-04T03:02:16.992Z,991.73
2018-01-04T03:04:09.638Z,991.80
2018-01-04T03:05:10.476Z,991.74
2018-01-04T03:07:04.098Z,991.58
2018-01-04T03:08:03.122Z,991.76
2018-01-04T03:09:58.181Z,991.74
2018-01-04T03:10:57.627Z,991.67
2018-01-04T03:12:51.148Z,991.73
2018-01-04T03:13:51.164Z,991.67
2018-01-04T03:15:43.579Z,991.74
2018-01-04T03:16:44.707Z,991.76
2018-01-04T03:18:36.985Z,991.70
2018-01-04T03:19:38.265Z,991.75
2018-01-04T03:21:30.695Z,991.77
2018-01-04T03:22:31.833Z,991.72
2018-01-04T03:24:25.406Z,991.71
2018-01-04T03:25:24.341Z,991.80
2018-01-04T03:27:18.047Z,991.76
2018-01-04T03:28:18.924Z,991.74
2018-01-04T03:30:12.567Z,991.79
2018-01-04T03:31:12.527Z,991.76
2018-01-04T03:33:04.532Z,991.74
2018-01-04T03:34:06.058Z,991.68
2018-01-04T03:35:59.651Z,991.81
2018-01-04T03:36:59.639Z,991.81
2018-01-04T03:38:53.074Z,991.79
2018-01-04T03:39:53.205Z,991.82
2018-01-04T03:41:45.296Z,991.83
2018-01-04T03:42:44.068Z,991.83
2018-01-04T03:44:39.416Z,991.87
2018-01-04T03:45:40.286Z,991.85
2018-01-04T03:47:33.841Z,991.84
2018-01-04T03:48:33.840Z,991.84
2018-01-04T03:50:26.374Z,991.79
2018-01-04T03:51:27.397Z,991.82
2018-01-04T03:53:21.571Z,991.85
2018-01-04T03:54:20.954Z,991.81
2018-01-04T03:56:13.639Z,991.83
2018-01-04T03:57:14.604Z,991.73
2018-01-04T03:59:07.172Z,991.73
2018-01-04T04:00:06.183Z,991.73
2018-01-04T04:02:00.811Z,991.80
2018-01-04T04:03:00.722Z,991.72
2018-01-04T04:04:55.248Z,991.69
2018-01-04T04:05:55.202Z,991.62
2018-01-04T04:07:46.436Z,991.68
2018-01-04T04:08:48.781Z,991.65
2018-01-04T04:10:40.894Z,991.65
2018-01-04T04:11:42.349Z,991.73
2018-01-04T04:13:35.016Z,991.87
2018-01-04T04:14:36.798Z,991.74
2018-01-04T04:16:29.485Z,991.87
2018-01-04T04:17:27.430Z,991.84
2018-01-04T04:19:22.156Z,991.93
2018-01-04T04:20:22.084Z,991.99
2018-01-04T04:22:15.431Z,992.10
2018-01-04T04:23:15.578Z,992.05
2018-01-04T04:25:07.740Z,992.03
2018-01-04T04:26:10.124Z,992.03
2018-01-04T04:28:01.735Z,992.10
2018-01-04T04:29:03.721Z,992.07
2018-01-04T04:30:55.515Z,992.13
2018-01-04T04:31:57.259Z,992.20
2018-01-04T04:33:50.795Z,992.13
2018-01-04T04:34:48.670Z,992.13
2018-01-04T04:36:43.509Z,992.13
2018-01-04T04:37:44.354Z,992.21
2018-01-04T04:39:37.870Z,992.26
2018-01-04T04:40:37.924Z,992.19
2018-01-04T04:42:32.030Z,992.10
2018-01-04T04:43:31.428Z,992.14
2018-01-04T04:45:22.114Z,992.17
2018-01-04T04:46:24.983Z,992.18
2018-01-04T04:48:16.780Z,992.01
2018-01-04T04:49:18.546Z,992.12
2018-01-04T04:51:12.182Z,992.12
2018-01-04T04:52:12.107Z,992.12
2018-01-04T04:54:04.788Z,992.02
2018-01-04T04:55:05.701Z,992.00
2018-01-04T04:56:57.768Z,991.99
2018-01-04T04:57:59.292Z,991.96
2018-01-04T04:59:51.027Z,991.90
2018-01-04T05:00:52.672Z,991.90
2018-01-04T05:19:37.559Z,991.73
2018-01-04T05:20:38.353Z,991.74
2018-01-04T05:22:31.086Z,991.80
2018-01-04T05:23:31.993Z,991.74
2018-01-04T05:25:24.448Z,991.78
2018-01-04T05:26:26.444Z,991.66
2018-01-04T05:28:18.979Z,991.50
2018-01-04T05:29:19.067Z,991.66
2018-01-04T05:31:11.936Z,991.63
2018-01-04T05:32:12.631Z,991.65
2018-01-04T05:34:05.238Z,991.51
2018-01-04T05:35:05.303Z,991.58
2018-01-04T05:36:58.007Z,991.52
2018-01-04T05:37:59.755Z,991.54
2018-01-04T05:39:52.408Z,991.57
2018-01-04T05:40:53.306Z,991.58
2018-01-04T05:42:45.146Z,991.61
2018-01-04T05:43:46.897Z,991.52
2018-01-04T05:45:39.473Z,991.62
2018-01-04T05:46:40.460Z,991.60
2018-01-04T05:48:31.897Z,991.61
2018-01-04T05:49:33.985Z,991.61
2018-01-04T05:51:26.672Z,991.54
2018-01-04T05:52:27.543Z,991.49
2018-01-04T05:54:21.156Z,991.50
2018-01-04T05:55:21.143Z,991.64
2018-01-04T05:57:13.796Z,991.62
2018-01-04T05:58:14.655Z,991.59
2018-01-04T06:13:55.597Z,991.70
2018-01-04T06:14:54.490Z,991.67
2018-01-04T06:16:49.962Z,991.62
2018-01-04T06:17:49.962Z,991.63
2018-01-04T06:19:40.704Z,991.58
2018-01-04T06:20:43.527Z,991.59
2018-01-04T06:22:36.166Z,991.58
2018-01-04T06:23:37.098Z,991.55
2018-01-04T06:25:27.715Z,991.55
2018-01-04T06:26:30.602Z,991.52
2018-01-04T06:28:23.304Z,991.49
2018-01-04T06:29:24.195Z,991.52
2018-01-04T06:31:15.269Z,991.54
2018-01-04T06:32:15.106Z,991.48
2018-01-04T06:34:10.526Z,991.51
2018-01-04T06:35:11.281Z,991.55
2018-01-04T06:37:04.845Z,991.55
2018-01-04T06:38:04.918Z,991.58
2018-01-04T06:39:57.540Z,991.55
2018-01-04T06:40:58.405Z,991.57
2018-01-04T06:42:52.006Z,991.63
2018-01-04T06:43:51.962Z,991.54
2018-01-04T06:45:44.478Z,991.56
2018-01-04T06:46:45.561Z,991.58
2018-01-04T06:48:39.067Z,991.57
2018-01-04T06:49:36.415Z,991.65
2018-01-04T06:51:31.759Z,991.60
2018-01-04T06:52:32.632Z,991.60
2018-01-04T06:54:25.304Z,991.58
2018-01-04T06:55:26.181Z,991.54
2018-01-04T06:57:18.488Z,991.47
2018-01-04T06:58:19.779Z,991.43
2018-01-04T07:00:12.513Z,991.44
2018-01-04T07:01:13.366Z,991.44
2018-01-04T07:03:06.002Z,991.36
2018-01-04T07:04:06.906Z,991.34
2018-01-04T07:05:58.815Z,991.37
2018-01-04T07:06:57.758Z,991.31
2018-01-04T07:08:52.962Z,991.37
2018-01-04T07:09:53.983Z,991.28
2018-01-04T07:11:47.538Z,991.27
2018-01-04T07:12:47.582Z,991.33
2018-01-04T07:14:40.189Z,991.28
2018-01-04T07:15:41.141Z,991.31
2018-01-04T07:17:34.699Z,991.26
2018-01-04T07:18:34.697Z,991.18
2018-01-04T07:20:27.338Z,991.20
2018-01-04T07:21:28.216Z,991.26
2018-01-04T07:23:22.356Z,991.27
2018-01-04T07:24:19.112Z,991.26
2018-01-04T07:26:15.344Z,991.30
2018-01-04T07:27:15.401Z,991.35
2018-01-04T07:29:08.034Z,991.33
2018-01-04T07:30:08.888Z,991.35
2018-01-04T07:32:02.447Z,991.35
2018-01-04T07:33:02.445Z,991.42
2018-01-04T07:34:55.089Z,991.34
2018-01-04T07:35:56.006Z,991.35
2018-01-04T07:37:49.553Z,991.33
2018-01-04T07:38:49.564Z,991.37
2018-01-04T07:40:42.200Z,991.41
2018-01-04T07:41:44.597Z,991.48
2018-01-04T07:43:36.715Z,991.50
2018-01-04T07:44:36.682Z,991.49
2018-01-04T07:46:29.354Z,991.54
2018-01-04T07:47:30.245Z,991.61
2018-01-04T07:49:21.552Z,991.57
2018-01-04T07:50:22.220Z,991.54
2018-01-04T07:52:17.352Z,991.50
2018-01-04T07:53:17.354Z,991.51
2018-01-04T07:55:09.785Z,991.60
2018-01-04T07:56:10.915Z,991.61
2018-01-04T07:58:04.449Z,991.67
2018-01-04T07:59:04.532Z,991.59
2018-01-04T08:00:55.254Z,991.53
2018-01-04T08:01:58.035Z,991.49
2018-01-04T08:03:51.605Z,991.51
2018-01-04T08:04:51.589Z,991.48
2018-01-04T08:06:44.248Z,991.56
2018-01-04T08:07:45.148Z,991.59
2018-01-04T08:09:37.823Z,991.54
2018-01-04T08:10:38.701Z,991.53
2018-01-04T08:12:32.285Z,991.46
2018-01-04T08:13:32.261Z,991.48
2018-01-04T08:15:24.891Z,991.47
2018-01-04T08:16:25.814Z,991.48
2018-01-04T08:18:16.536Z,991.42
2018-01-04T08:20:31.859Z,991.34
2018-01-04T08:21:30.872Z,991.39
2018-01-04T08:23:24.320Z,991.41
2018-01-04T08:24:26.356Z,991.46
2018-01-04T08:26:18.929Z,991.34
2018-01-04T08:27:20.814Z,991.34
2018-01-04T08:29:13.504Z,991.36
2018-01-04T08:30:13.510Z,991.31
2018-01-04T08:32:06.259Z,991.24
2018-01-04T08:33:07.082Z,991.19
2018-01-04T08:35:00.596Z,991.23
2018-01-04T08:36:00.631Z,991.17
2018-01-04T08:37:53.234Z,991.21
2018-01-04T08:38:52.214Z,991.23
2018-01-04T08:40:46.840Z,991.17
2018-01-04T08:41:47.750Z,991.17
2018-01-04T08:43:41.273Z,991.12
2018-01-04T08:44:41.303Z,991.10
2018-01-04T08:46:33.898Z,991.12
2018-01-04T08:47:34.834Z,991.09
2018-01-04T08:49:28.394Z,991.10
2018-01-04T08:50:28.453Z,991.18
2018-01-04T08:52:21.085Z,991.16
2018-01-04T08:53:20.323Z,991.15
2018-01-04T08:55:15.553Z,991.08
2018-01-04T08:56:12.886Z,991.12
2018-01-04T08:58:08.018Z,991.12
2018-01-04T08:59:09.074Z,991.08
2018-01-04T09:01:01.600Z,991.04
2018-01-04T09:02:02.630Z,991.05
2018-01-04T09:03:55.276Z,991.01
2018-01-04T09:04:56.254Z,991.05
2018-01-04T09:06:49.673Z,991.09
2018-01-04T09:07:49.729Z,991.02
2018-01-04T09:09:42.394Z,991.02
2018-01-04T09:10:42.785Z,991.00
2018-01-04T09:12:36.860Z,991.05
2018-01-04T09:13:34.862Z,991.10
2018-01-04T09:15:29.531Z,991.09
2018-01-04T09:16:30.462Z,991.05
2018-01-04T09:18:23.109Z,991.05
2018-01-04T09:19:23.975Z,990.97
2018-01-04T09:21:17.534Z,991.00
2018-01-04T09:22:17.573Z,991.00
2018-01-04T09:24:10.530Z,990.99
2018-01-04T09:25:11.139Z,990.98
2018-01-04T09:27:04.664Z,990.96
2018-01-04T09:28:04.659Z,991.00
2018-01-04T09:29:57.571Z,991.02
2018-01-04T09:30:58.087Z,991.05
2018-01-04T09:32:51.538Z,991.04
2018-01-04T09:33:51.793Z,991.05
2018-01-04T09:35:44.460Z,991.01
2018-01-04T09:36:45.369Z,990.95
2018-01-04T09:38:38.932Z,990.87
2018-01-04T09:39:38.929Z,990.93
2018-01-04T09:41:31.565Z,990.88
2018-01-04T09:42:32.452Z,990.90
2018-01-04T09:44:26.028Z,990.89
2018-01-04T09:45:26.073Z,990.81
2018-01-04T09:47:18.686Z,990.76
2018-01-04T09:48:19.567Z,990.69
2018-01-04T09:50:13.137Z,990.68
2018-01-04T09:51:13.173Z,990.66
2018-01-04T09:53:05.774Z,990.76
2018-01-04T09:54:06.726Z,990.78
2018-01-04T09:56:00.346Z,990.81
2018-01-04T09:57:00.325Z,990.80
2018-01-04T09:58:52.921Z,990.78
2018-01-04T09:59:53.852Z,990.74
2018-01-04T10:01:47.380Z,990.70
2018-01-04T10:02:47.664Z,990.71
2018-01-04T10:04:39.788Z,990.75
2018-01-04T10:05:40.932Z,990.69
2018-01-04T10:07:34.460Z,990.70
2018-01-04T10:08:34.480Z,990.68
2018-01-04T10:10:27.304Z,990.60
2018-01-04T10:11:28.079Z,990.52
2018-01-04T10:13:28.886Z,990.47
2018-01-04T10:14:21.633Z,990.51
2018-01-04T10:16:14.308Z,990.42
2018-01-04T10:17:15.150Z,990.54
2018-01-04T10:19:08.742Z,990.44
2018-01-04T10:20:08.723Z,990.44
2018-01-04T10:22:01.382Z,990.39
2018-01-04T10:23:02.286Z,990.31
2018-01-04T10:24:54.954Z,990.25
2018-01-04T10:25:55.824Z,990.30
2018-01-04T10:27:49.431Z,990.32
2018-01-04T10:28:49.387Z,990.23
2018-01-04T10:30:41.962Z,990.15
2018-01-04T10:31:42.984Z,990.13
2018-01-04T10:33:36.441Z,990.21
2018-01-04T10:35:47.164Z,990.14
2018-01-04T10:36:49.920Z,990.04
2018-01-04T10:38:44.152Z,990.10
2018-01-04T10:39:43.474Z,990.06
2018-01-04T10:41:36.077Z,990.01
2018-01-04T10:42:37.089Z,990.00
2018-01-04T10:44:30.655Z,989.88
2018-01-04T10:45:28.701Z,989.82
2018-01-04T10:47:23.273Z,989.83
2018-01-04T10:48:24.238Z,989.81
2018-01-04T10:50:17.708Z,989.80
2018-01-04T10:51:17.785Z,989.78
2018-01-04T10:53:10.244Z,989.71
2018-01-04T10:54:11.316Z,989.71
2018-01-04T10:56:04.906Z,989.71
2018-01-04T10:57:04.845Z,989.72
2018-01-04T10:58:57.362Z,989.61
2018-01-04T10:59:58.429Z,989.55
2018-01-04T11:01:51.733Z,989.53
2018-01-04T11:02:50.626Z,989.55
2018-01-04T11:04:44.756Z,989.43
2018-01-04T11:05:43.950Z,989.48
2018-01-04T11:07:39.084Z,989.39
2018-01-04T11:08:39.095Z,989.45
2018-01-04T11:10:31.785Z,989.43
2018-01-04T11:11:32.701Z,989.39
2018-01-04T11:13:26.218Z,989.28
2018-01-04T11:14:26.206Z,989.26
2018-01-04T11:16:18.351Z,989.24
2018-01-04T11:17:19.763Z,989.16
2018-01-04T11:19:12.167Z,989.10
2018-01-04T11:20:13.324Z,989.11
2018-01-04T11:22:05.821Z,989.09
2018-01-04T11:23:06.888Z,989.04
2018-01-04T11:25:00.433Z,989.11
2018-01-04T11:26:00.474Z,989.06
2018-01-04T11:27:54.583Z,989.00
2018-01-04T11:28:54.040Z,988.94
2018-01-04T11:30:47.574Z,988.94
2018-01-04T11:31:47.565Z,988.87
2018-01-04T11:33:41.729Z,988.87
2018-01-04T11:34:41.157Z,988.83
2018-01-04T11:36:33.805Z,988.91
2018-01-04T11:37:32.044Z,989.00
2018-01-04T11:39:28.236Z,988.97
2018-01-04T11:40:27.392Z,988.97
2018-01-04T11:42:20.932Z,989.00
2018-01-04T11:43:21.851Z,988.96
2018-01-04T11:45:14.437Z,988.96
2018-01-04T11:46:15.480Z,988.95
2018-01-04T11:48:09.016Z,988.97
2018-01-04T11:49:08.967Z,988.93
2018-01-04T11:51:02.378Z,988.86
2018-01-04T11:52:02.497Z,988.79
2018-01-04T11:53:56.060Z,988.67
2018-01-04T11:54:53.410Z,988.61
2018-01-04T11:56:48.821Z,988.52
2018-01-04T11:57:49.626Z,988.50
2018-01-04T11:59:44.054Z,988.48
2018-01-04T12:00:43.152Z,988.41
2018-01-04T12:02:36.367Z,988.33
2018-01-04T12:03:36.715Z,988.33
2018-01-04T12:05:27.577Z,988.24
2018-01-04T12:06:30.283Z,988.20
2018-01-04T12:08:23.051Z,988.09
2018-01-04T12:09:23.833Z,988.07
2018-01-04T12:11:17.422Z,988.04
2018-01-04T12:12:17.489Z,988.06
2018-01-04T12:14:10.074Z,988.04
2018-01-04T12:15:10.959Z,987.99
2018-01-04T12:17:04.541Z,987.95
2018-01-04T12:18:04.531Z,987.91
2018-01-04T12:19:57.106Z,987.81
2018-01-04T12:20:56.515Z,987.81
2018-01-04T12:22:51.618Z,987.78
2018-01-04T12:23:51.681Z,987.73
2018-01-04T12:25:44.364Z,987.67
2018-01-04T12:26:45.198Z,987.64
2018-01-04T12:28:37.720Z,987.62
2018-01-04T12:29:38.750Z,987.57
2018-01-04T12:31:32.304Z,987.53
2018-01-04T12:32:32.331Z,987.50
2018-01-04T12:34:24.939Z,987.45
2018-01-04T12:35:25.895Z,987.35
2018-01-04T12:37:19.433Z,987.39
2018-01-04T12:38:19.490Z,987.39
2018-01-04T12:40:12.078Z,987.39
2018-01-04T12:41:12.981Z,987.33
2018-01-04T12:43:06.550Z,987.30
2018-01-04T12:44:06.556Z,987.29
2018-01-04T12:45:59.278Z,987.27
2018-01-04T12:47:00.178Z,987.24
2018-01-04T12:48:53.659Z,987.18
2018-01-04T12:49:53.716Z,987.14
2018-01-04T12:51:46.472Z,987.12
2018-01-04T12:52:47.285Z,987.03
2018-01-04T12:54:39.948Z,986.96
2018-01-04T12:55:40.779Z,986.92
2018-01-04T12:57:33.525Z,986.92
2018-01-04T12:58:34.332Z,986.88
2018-01-04T13:00:27.079Z,986.88
2018-01-04T13:01:27.944Z,986.87
2018-01-04T13:03:21.376Z,986.82
2018-01-04T13:04:21.483Z,986.79
2018-01-04T13:06:14.203Z,986.78
2018-01-04T13:07:15.036Z,986.77
2018-01-04T13:09:08.644Z,986.72
2018-01-04T13:10:08.636Z,986.74
2018-01-04T13:12:01.300Z,986.73
2018-01-04T13:13:02.151Z,986.69
2018-01-04T13:14:55.642Z,986.63
2018-01-04T13:15:55.713Z,986.63
2018-01-04T13:17:48.392Z,986.47
2018-01-04T13:18:49.469Z,986.44
2018-01-04T13:20:42.866Z,986.39
2018-01-04T13:21:42.850Z,986.38
2018-01-04T13:23:35.514Z,986.35
2018-01-04T13:24:36.432Z,986.31
2018-01-04T13:26:29.076Z,986.24
2018-01-04T13:27:29.974Z,986.23
2018-01-04T13:29:21.342Z,986.20
2018-01-04T13:30:23.551Z,986.14
2018-01-04T13:32:16.272Z,986.09
2018-01-04T13:33:16.356Z,986.04
2018-01-04T13:35:09.731Z,986.04
2018-01-04T13:36:10.651Z,986.01
2018-01-04T13:38:04.186Z,985.98
2018-01-04T13:39:04.771Z,985.93
2018-01-04T13:40:56.892Z,985.88
2018-01-04T13:41:57.918Z,985.80
2018-01-04T13:43:50.351Z,985.83
2018-01-04T13:44:51.329Z,985.80
2018-01-04T13:46:42.658Z,985.71
2018-01-04T13:47:44.864Z,985.71
2018-01-04T13:49:37.422Z,985.67
2018-01-04T13:50:38.429Z,985.63
2018-01-04T13:52:31.909Z,985.61
2018-01-04T13:53:31.980Z,985.53
2018-01-04T13:55:24.626Z,985.54
2018-01-04T13:56:25.579Z,985.49
2018-01-04T13:58:18.965Z,985.47
2018-01-04T13:59:19.141Z,985.45
2018-01-04T14:01:11.674Z,985.44
2018-01-04T14:02:12.726Z,985.35
2018-01-04T14:04:05.253Z,985.30
2018-01-04T14:05:06.296Z,985.25
2018-01-04T14:06:58.927Z,985.11
2018-01-04T14:07:59.769Z,985.14
2018-01-04T14:09:52.496Z,985.04
2018-01-04T14:10:53.378Z,984.99
2018-01-04T14:12:46.945Z,984.99
2018-01-04T14:13:46.898Z,984.96
2018-01-04T14:15:39.602Z,984.95
2018-01-04T14:16:40.506Z,984.92
2018-01-04T14:18:34.018Z,984.95
2018-01-04T14:19:34.106Z,984.91
2018-01-04T14:21:26.291Z,984.91
2018-01-04T14:22:27.565Z,984.91
2018-01-04T14:24:21.169Z,984.83
2018-01-04T14:25:21.231Z,984.82
2018-01-04T14:27:13.022Z,984.86
2018-01-04T14:28:14.728Z,984.80
2018-01-04T14:30:08.226Z,984.80
2018-01-04T14:31:08.331Z,984.77
2018-01-04T14:33:01.028Z,984.73
2018-01-04T14:34:01.869Z,984.69
2018-01-04T14:35:55.384Z,984.68
2018-01-04T14:36:55.396Z,984.71
2018-01-04T14:38:46.116Z,984.70
2018-01-04T14:39:48.939Z,984.69
2018-01-04T14:41:42.513Z,984.67
2018-01-04T14:42:42.531Z,984.67
2018-01-04T14:44:36.305Z,984.70
2018-01-04T14:45:36.054Z,984.73
2018-01-04T14:47:29.567Z,984.72
2018-01-04T14:48:29.599Z,984.69
2018-01-04T14:50:22.303Z,984.63
2018-01-04T14:51:23.181Z,984.61
2018-01-04T14:53:14.893Z,984.57
2018-01-04T14:54:16.732Z,984.59
2018-01-04T14:56:08.231Z,984.57
2018-01-04T14:57:10.331Z,984.55
2018-01-04T14:59:04.027Z,984.50
2018-01-04T15:00:03.884Z,984.47
2018-01-04T15:01:56.573Z,984.51
2018-01-04T15:02:57.449Z,984.52
2018-01-04T15:04:49.245Z,984.48
2018-01-04T15:05:51.088Z,984.50
2018-01-04T15:07:43.653Z,984.45
2018-01-04T15:08:44.511Z,984.50
2018-01-04T15:10:37.978Z,984.46
2018-01-04T15:11:38.124Z,984.50
2018-01-04T15:13:31.046Z,984.51
2018-01-04T15:14:31.670Z,984.52
2018-01-04T15:16:25.281Z,984.45
2018-01-04T15:17:25.244Z,984.50
2018-01-04T15:19:17.875Z,984.44
2018-01-04T15:20:18.187Z,984.46
2018-01-04T15:22:12.048Z,984.51
2018-01-04T15:23:12.369Z,984.42
2018-01-04T15:25:05.876Z,984.45
2018-01-04T15:26:03.224Z,984.47
2018-01-04T15:27:58.568Z,984.42
2018-01-04T15:28:59.583Z,984.38
2018-01-04T15:30:53.037Z,984.41
2018-01-04T15:31:53.048Z,984.43
2018-01-04T15:33:45.696Z,984.40
2018-01-04T15:34:46.155Z,984.43
2018-01-04T15:36:40.030Z,984.44
2018-01-04T15:37:40.177Z,984.41
2018-01-04T15:39:32.773Z,984.39
2018-01-04T15:40:33.657Z,984.35
2018-01-04T15:42:26.163Z,984.35
2018-01-04T15:43:28.153Z,984.37
2018-01-04T15:45:19.894Z,984.37
2018-01-04T15:46:20.851Z,984.36
2018-01-04T15:48:13.974Z,984.29
2018-01-04T15:49:14.408Z,984.24
2018-01-04T15:51:07.958Z,984.33
2018-01-04T15:52:07.920Z,984.32
2018-01-04T15:54:00.552Z,984.26
2018-01-04T15:55:01.553Z,984.25
2018-01-04T15:56:55.043Z,984.20
2018-01-04T15:57:55.034Z,984.19
2018-01-04T15:59:47.483Z,984.18
2018-01-04T16:00:48.653Z,984.24
2018-01-04T16:02:42.130Z,984.29
2018-01-04T16:03:42.375Z,984.31
2018-01-04T16:05:34.913Z,984.29
2018-01-04T16:06:36.366Z,984.32
2018-01-04T16:08:27.031Z,984.32
2018-01-04T16:09:29.313Z,984.37
2018-01-04T16:11:20.846Z,984.32
2018-01-04T16:12:22.861Z,984.35
2018-01-04T16:14:15.385Z,984.33
2018-01-04T16:15:16.400Z,984.33
2018-01-04T16:17:10.006Z,984.36
2018-01-04T16:19:22.319Z,984.34
2018-01-04T16:20:23.359Z,984.39
2018-01-04T16:22:16.892Z,984.45
2018-01-04T16:23:14.327Z,984.42
2018-01-04T16:25:09.410Z,984.44
2018-01-04T16:26:10.452Z,984.39
2018-01-04T16:28:04.075Z,984.44
2018-01-04T16:29:04.096Z,984.40
2018-01-04T16:30:57.043Z,984.37
2018-01-04T16:31:57.536Z,984.37
2018-01-04T16:33:51.087Z,984.40
2018-01-04T16:34:51.182Z,984.35
2018-01-04T16:36:43.929Z,984.44
2018-01-04T16:37:44.679Z,984.36
2018-01-04T16:39:38.266Z,984.33
2018-01-04T16:40:38.252Z,984.27
2018-01-04T16:42:30.901Z,984.38
2018-01-04T16:43:31.826Z,984.30
2018-01-04T16:45:25.372Z,984.35
2018-01-04T16:46:25.379Z,984.34
2018-01-04T16:48:16.689Z,984.25
2018-01-04T16:49:19.898Z,984.24
2018-01-04T16:51:12.544Z,984.27
2018-01-04T16:52:12.571Z,984.26
2018-01-04T16:54:05.013Z,984.15
2018-01-04T16:55:06.095Z,984.17
2018-01-04T16:56:59.606Z,984.12
2018-01-04T16:57:59.616Z,984.11
2018-01-04T16:59:52.285Z,984.11
2018-01-04T17:00:53.197Z,984.08
2018-01-04T17:02:46.739Z,984.06
2018-01-04T17:03:46.727Z,984.05
2018-01-04T17:05:37.470Z,984.06
2018-01-04T17:06:40.307Z,984.06
2018-01-04T17:08:33.858Z,984.02
2018-01-04T17:09:33.870Z,984.08
2018-01-04T17:11:26.584Z,984.07
2018-01-04T17:12:27.412Z,984.07
2018-01-04T17:14:20.912Z,984.07
2018-01-04T17:15:20.970Z,984.01
2018-01-04T17:17:19.036Z,983.97
2018-01-04T17:18:17.008Z,983.90
2018-01-04T17:20:08.097Z,983.89
2018-01-04T17:21:08.131Z,983.92
2018-01-04T17:23:01.205Z,983.90
2018-01-04T17:24:01.671Z,983.95
2018-01-04T17:25:55.289Z,983.94
2018-01-04T17:26:55.267Z,983.94
2018-01-04T17:28:47.779Z,983.95
2018-01-04T17:29:48.822Z,983.90
2018-01-04T17:31:42.412Z,983.91
2018-01-04T17:32:42.327Z,983.95
2018-01-04T17:34:35.005Z,983.93
2018-01-04T17:35:33.238Z,983.90
2018-01-04T17:37:28.626Z,983.84
2018-01-04T17:38:29.478Z,983.80
2018-01-04T17:40:23.004Z,983.83
2018-01-04T17:41:23.011Z,983.75
2018-01-04T17:43:16.778Z,983.70
2018-01-04T17:44:16.617Z,983.69
2018-01-04T17:46:10.340Z,983.71
2018-01-04T17:47:10.147Z,983.67
2018-01-04T17:49:02.991Z,983.73
2018-01-04T17:50:03.755Z,983.69
2018-01-04T17:51:57.335Z,983.67
2018-01-04T17:52:54.623Z,983.78
2018-01-04T17:54:50.022Z,983.73
2018-01-04T17:55:51.723Z,983.58
2018-01-04T17:57:44.378Z,983.58
2018-01-04T17:58:44.383Z,983.62
2018-01-04T18:00:38.636Z,983.65
2018-01-04T18:01:37.924Z,983.64
2018-01-04T18:03:31.540Z,983.66
2018-01-04T18:04:31.547Z,983.65
2018-01-04T18:06:24.462Z,983.70
2018-01-04T18:07:25.082Z,983.56
2018-01-04T18:09:18.653Z,983.59
2018-01-04T18:10:15.955Z,983.58
2018-01-04T18:12:11.368Z,983.52
2018-01-04T18:13:12.214Z,983.56
2018-01-04T18:15:05.785Z,983.73
2018-01-04T18:16:05.762Z,983.55
2018-01-04T18:17:58.391Z,983.66
2018-01-04T18:18:59.319Z,983.62
2018-01-04T18:20:55.615Z,983.66
2018-01-04T18:21:52.889Z,983.63
2018-01-04T18:23:45.868Z,983.66
2018-01-04T18:24:46.463Z,983.67
2018-01-04T18:26:39.972Z,983.67
2018-01-04T18:27:39.972Z,983.72
2018-01-04T18:29:32.683Z,983.71
2018-01-04T18:30:33.542Z,983.79
2018-01-04T18:32:27.092Z,983.79
2018-01-04T18:33:27.131Z,983.79
2018-01-04T18:35:19.647Z,983.73
2018-01-04T18:36:20.657Z,983.78
2018-01-04T18:38:16.529Z,983.73